Time;durP1;ratioP1;P1;durP2;ratioP2;P2;SDS_P1;SDS_P2;PMS_P1;PMS_P2;Temp;Humidity;BMP_temperature;BMP_pressure;BME280_temperature;BME280_humidity;BME280_pressure;Samples;Min_cycle;Max_cycle;Signal;HPM_P1;HPM_P2
2022/11/26 00:03:39;;;;;;;32.95;19.80;;;;;;;6.61;100.00;100801.47;2745847;85;21669;-92
2022/11/26 00:07:45;;;;;;;27.82;19.25;;;;;;;6.72;100.00;100803.50;2750198;86;21487;-93
2022/11/26 00:11:47;;;;;;;24.18;17.32;;;;;;;6.79;100.00;100807.97;2741445;86;21536;-92
2022/11/26 00:15:49;;;;;;;25.85;18.60;;;;;;;6.86;100.00;100805.34;2767677;84;21336;-93
2022/11/26 00:19:50;;;;;;;32.78;21.00;;;;;;;6.90;100.00;100802.92;2804256;84;21074;-95
2022/11/26 00:23:54;;;;;;;30.97;20.27;;;;;;;6.96;100.00;100805.20;2798944;84;21811;-94
2022/11/26 00:27:57;;;;;;;34.83;24.02;;;;;;;6.99;100.00;100808.98;2806342;84;21062;-93
2022/11/26 00:31:58;;;;;;;28.85;18.70;;;;;;;7.00;100.00;100809.36;2804440;84;21121;-94
2022/11/26 00:36:21;;;;;;;31.57;19.45;;;;;;;7.03;100.00;100814.09;2791517;84;21542;-91
2022/11/26 00:40:28;;;;;;;27.07;16.90;;;;;;;7.08;100.00;100813.37;2806219;84;21685;-91
2022/11/26 00:44:31;;;;;;;31.65;19.73;;;;;;;7.14;100.00;100813.00;2751149;84;21082;-91
2022/11/26 00:48:33;;;;;;;34.53;19.27;;;;;;;7.16;100.00;100813.75;2806711;84;21110;-92
2022/11/26 00:52:35;;;;;;;30.85;19.10;;;;;;;7.24;100.00;100812.81;2804278;83;21019;-91
2022/11/26 00:56:43;;;;;;;40.00;19.37;;;;;;;7.32;100.00;100812.85;2776600;84;21058;-92
2022/11/26 01:00:49;;;;;;;27.22;18.85;;;;;;;7.38;100.00;100816.44;2794628;84;21026;-91
2022/11/26 01:04:54;;;;;;;23.80;15.95;;;;;;;7.46;100.00;100822.11;2792751;84;21125;-90
2022/11/26 01:08:59;;;;;;;24.27;16.00;;;;;;;7.53;100.00;100818.17;2795787;84;21078;-91
2022/11/26 01:13:01;;;;;;;25.95;18.37;;;;;;;7.60;100.00;100817.33;2750893;84;21034;-90
2022/11/26 01:17:07;;;;;;;29.50;17.05;;;;;;;7.68;100.00;100819.52;2763495;84;21098;-91
2022/11/26 01:21:11;;;;;;;23.98;17.10;;;;;;;7.79;100.00;100820.17;2752119;84;21633;-93
2022/11/26 01:25:12;;;;;;;19.90;14.30;;;;;;;7.95;100.00;100825.36;2755099;84;21093;-91
2022/11/26 01:29:16;;;;;;;26.73;14.70;;;;;;;8.12;100.00;100826.48;2752133;84;21083;-93
2022/11/26 01:33:18;;;;;;;21.50;13.75;;;;;;;8.24;100.00;100834.59;2756784;84;21062;-93
2022/11/26 01:37:19;;;;;;;21.57;14.63;;;;;;;8.25;100.00;100832.32;2733196;86;21065;-92
2022/11/26 01:41:43;;;;;;;16.45;11.28;;;;;;;8.28;100.00;100836.13;2735677;86;21043;-91
2022/11/26 01:45:45;;;;;;;22.80;14.50;;;;;;;8.36;100.00;100832.50;2757980;84;21102;-91
2022/11/26 01:50:28;;;;;;;15.28;11.85;;;;;;;8.40;100.00;100833.16;2754425;86;21059;-92
2022/11/26 01:54:33;;;;;;;16.62;12.20;;;;;;;8.37;100.00;100832.88;2726123;86;21061;-90
2022/11/26 01:58:45;;;;;;;17.77;11.88;;;;;;;8.36;100.00;100835.64;2711662;86;21653;-92
2022/11/26 02:02:46;;;;;;;20.90;11.65;;;;;;;8.32;100.00;100835.44;2751168;86;21381;-92
2022/11/26 02:06:49;;;;;;;20.02;13.60;;;;;;;8.29;100.00;100830.71;2749584;84;21095;-91
2022/11/26 02:10:51;;;;;;;15.90;12.00;;;;;;;8.35;100.00;100836.10;2752996;86;21019;-91
2022/11/26 02:14:54;;;;;;;17.70;14.40;;;;;;;8.37;100.00;100837.34;2755589;85;21091;-91
2022/11/26 02:19:35;;;;;;;17.75;12.53;;;;;;;8.37;100.00;100839.99;2731374;85;21015;-92
2022/11/26 02:23:54;;;;;;;18.55;12.88;;;;;;;8.35;100.00;100838.75;2755395;86;21055;-93
2022/11/26 02:28:24;;;;;;;17.50;12.00;;;;;;;8.32;100.00;100840.28;2758774;86;21600;-92
2022/11/26 02:32:43;;;;;;;18.07;14.13;;;;;;;8.25;100.00;100842.92;2753258;86;21122;-92
2022/11/26 02:37:02;;;;;;;18.77;12.45;;;;;;;8.18;100.00;100841.62;2752151;86;21590;-91
2022/11/26 02:41:04;;;;;;;21.62;14.03;;;;;;;8.12;100.00;100841.06;2777451;83;21095;-94
2022/11/26 02:45:11;;;;;;;14.55;13.05;;;;;;;8.08;100.00;100848.83;2744086;86;21606;-92
2022/11/26 02:49:17;;;;;;;22.37;12.53;;;;;;;8.07;100.00;100846.27;2738711;86;21044;-87
2022/11/26 02:53:20;;;;;;;;;;;;;;;8.03;100.00;100848.73;2745163;86;21040;-94
2022/11/26 02:57:26;;;;;;;17.52;11.40;;;;;;;8.00;100.00;100853.28;2746657;86;20695;-96
2022/11/26 03:01:33;;;;;;;12.50;10.98;;;;;;;8.06;100.00;100856.48;2746804;84;21020;-93
2022/11/26 03:05:38;;;;;;;12.63;9.85;;;;;;;8.08;100.00;100859.43;2755163;85;21039;-92
2022/11/26 03:09:53;;;;;;;16.25;10.70;;;;;;;8.12;100.00;100860.94;2743602;84;21126;-93
2022/11/26 03:13:55;;;;;;;14.43;11.03;;;;;;;8.11;100.00;100861.89;2780463;85;21066;-91
2022/11/26 03:17:56;;;;;;;18.87;12.55;;;;;;;8.13;100.00;100865.29;2750474;84;21877;-91
2022/11/26 03:21:57;;;;;;;17.85;10.90;;;;;;;8.18;100.00;100870.77;2778499;84;21079;-91
2022/11/26 03:25:58;;;;;;;15.32;10.60;;;;;;;8.12;100.00;100876.84;2767447;84;21089;-91
2022/11/26 03:30:00;;;;;;;14.83;9.15;;;;;;;8.01;100.00;100885.91;2797460;84;21115;-90
2022/11/26 03:34:01;;;;;;;11.38;9.28;;;;;;;7.98;100.00;100886.10;2770608;84;21042;-91
2022/11/26 03:38:02;;;;;;;14.23;10.25;;;;;;;7.91;100.00;100896.22;2790620;83;21018;-93
2022/11/26 03:42:04;;;;;;;12.78;10.55;;;;;;;7.95;100.00;100887.63;2784110;84;21007;-91
2022/11/26 03:46:05;;;;;;;13.88;10.08;;;;;;;7.90;100.00;100893.69;2793636;83;21047;-91
2022/11/26 03:50:07;;;;;;;14.23;9.40;;;;;;;7.91;100.00;100896.70;2807895;84;21028;-92
2022/11/26 03:54:09;;;;;;;12.88;10.13;;;;;;;7.95;100.00;100900.87;2804697;84;21022;-91
2022/11/26 03:58:11;;;;;;;12.23;8.98;;;;;;;7.89;100.00;100899.44;2779702;84;21075;-91
2022/11/26 04:02:12;;;;;;;9.78;8.85;;;;;;;7.94;100.00;100900.48;2799623;84;21031;-92
2022/11/26 04:06:13;;;;;;;13.78;9.20;;;;;;;8.04;100.00;100901.61;2808692;84;21050;-91
2022/11/26 04:10:15;;;;;;;18.27;10.88;;;;;;;8.00;100.00;100904.95;2807203;83;21027;-91
2022/11/26 04:14:16;;;;;;;12.30;9.43;;;;;;;8.07;100.00;100905.42;2775834;84;20984;-91
2022/11/26 04:18:18;;;;;;;11.90;9.48;;;;;;;8.04;100.00;100912.70;2749314;84;21028;-90
2022/11/26 04:22:19;;;;;;;14.87;9.80;;;;;;;8.15;100.00;100914.20;2744444;85;21028;-89
2022/11/26 04:26:20;;;;;;;12.45;9.38;;;;;;;8.18;100.00;100925.09;2752129;86;21047;-93
2022/11/26 04:30:22;;;;;;;12.73;9.45;;;;;;;8.18;100.00;100929.07;2758738;86;21386;-95
2022/11/26 04:34:24;;;;;;;14.80;8.28;;;;;;;8.15;100.00;100932.75;2760093;84;21492;-94
2022/11/26 04:38:26;;;;;;;13.68;9.35;;;;;;;8.10;100.00;100937.03;2751550;84;21024;-93
2022/11/26 04:42:27;;;;;;;15.70;8.73;;;;;;;8.18;100.00;100939.67;2757504;86;21067;-92
2022/11/26 04:46:28;;;;;;;9.90;7.60;;;;;;;8.24;100.00;100948.56;2766681;84;21113;-92
2022/11/26 04:50:30;;;;;;;12.10;8.80;;;;;;;8.10;100.00;100952.06;2745278;86;21052;-92
2022/11/26 04:54:31;;;;;;;10.48;7.00;;;;;;;8.03;100.00;100949.42;2742432;86;21582;-92
2022/11/26 04:58:32;;;;;;;8.48;6.97;;;;;;;7.89;100.00;100955.55;2723574;86;21074;-93
2022/11/26 05:02:34;;;;;;;10.05;7.20;;;;;;;7.91;100.00;100957.15;2756325;86;21004;-91
2022/11/26 05:06:35;;;;;;;6.50;5.83;;;;;;;7.89;100.00;100964.34;2758556;85;21611;-94
2022/11/26 05:10:37;;;;;;;8.93;7.42;;;;;;;7.85;100.00;100967.62;2756280;86;21130;-89
2022/11/26 05:14:38;;;;;;;7.40;5.58;;;;;;;7.96;100.00;100959.53;2727183;86;21622;-91
2022/11/26 05:18:39;;;;;;;8.25;5.47;;;;;;;7.91;100.00;100969.06;2742936;85;21089;-91
2022/11/26 05:22:42;;;;;;;12.00;6.80;;;;;;;7.83;100.00;100975.31;2730762;84;21059;-91
2022/11/26 05:26:44;;;;;;;11.05;7.53;;;;;;;7.85;100.00;100979.55;2760337;85;21082;-90
2022/11/26 05:30:45;;;;;;;7.10;5.45;;;;;;;7.94;100.00;100987.42;2787958;84;21066;-92
2022/11/26 05:34:47;;;;;;;6.25;5.62;;;;;;;7.90;100.00;100986.39;2740035;85;21523;-90
2022/11/26 05:38:48;;;;;;;9.45;5.70;;;;;;;7.94;100.00;100987.42;2735788;85;21019;-92
2022/11/26 05:42:49;;;;;;;3.85;3.47;;;;;;;7.98;100.00;100989.42;2746990;85;21593;-92
2022/11/26 05:46:51;;;;;;;6.58;4.28;;;;;;;8.04;100.00;100993.02;2741092;85;21048;-91
2022/11/26 05:50:58;;;;;;;6.85;4.55;;;;;;;8.18;100.00;101000.63;2758270;86;21630;-91
2022/11/26 05:54:59;;;;;;;5.83;5.12;;;;;;;8.31;100.00;101003.37;2753176;86;21578;-92
2022/11/26 05:59:01;;;;;;;7.70;5.05;;;;;;;8.36;100.00;101005.30;2752925;84;21079;-92
2022/11/26 06:03:02;;;;;;;6.28;5.03;;;;;;;8.37;100.00;101008.33;2757052;85;21542;-94
2022/11/26 06:07:03;;;;;;;5.15;4.45;;;;;;;8.39;100.00;101003.78;2756078;85;21067;-92
2022/11/26 06:11:05;;;;;;;5.37;4.87;;;;;;;8.36;100.00;101010.11;2756173;84;21012;-91
2022/11/26 06:15:07;;;;;;;6.28;4.72;;;;;;;8.35;100.00;101010.20;2728768;86;21077;-91
2022/11/26 06:19:10;;;;;;;4.60;4.03;;;;;;;8.37;100.00;101019.77;2794207;84;21529;-90
2022/11/26 06:23:11;;;;;;;7.12;4.92;;;;;;;8.33;100.00;101027.53;2803600;84;21070;-90
2022/11/26 06:27:13;;;;;;;6.37;5.45;;;;;;;8.23;100.00;101031.22;2765230;85;21645;-89
2022/11/26 06:31:15;;;;;;;6.85;5.10;;;;;;;8.21;100.00;101036.22;2783245;85;21679;-90
2022/11/26 06:35:16;;;;;;;7.78;7.03;;;;;;;8.25;100.00;101049.20;2782779;84;21059;-92
2022/11/26 06:39:18;;;;;;;7.85;6.08;;;;;;;8.20;100.00;101054.39;2753989;85;21048;-91
2022/11/26 06:43:19;;;;;;;8.03;6.17;;;;;;;8.15;100.00;101062.15;2771895;85;21089;-92
2022/11/26 06:47:20;;;;;;;5.60;4.70;;;;;;;8.09;100.00;101070.47;2804676;84;21046;-90
2022/11/26 06:51:26;;;;;;;8.20;6.03;;;;;;;8.06;100.00;101073.31;2806588;84;21026;-90
2022/11/26 06:55:25;;;;;;;8.13;6.65;;;;;;;8.03;100.00;101080.08;2740414;84;21055;-90
2022/11/26 06:59:26;;;;;;;12.78;8.70;;;;;;;7.99;100.00;101087.38;2807414;84;21561;-92
2022/11/26 07:03:27;;;;;;;9.45;8.38;;;;;;;7.95;100.00;101087.64;2782549;84;21030;-93
2022/11/26 07:07:29;;;;;;;11.12;9.80;;;;;;;8.02;100.00;101098.73;2804945;84;21524;-91
2022/11/26 07:11:31;;;;;;;18.55;10.28;;;;;;;7.99;100.00;101105.92;2782818;83;21074;-91
2022/11/26 07:15:32;;;;;;;15.98;11.75;;;;;;;8.03;100.00;101102.61;2806418;83;21594;-92
2022/11/26 07:19:33;;;;;;;13.08;9.65;;;;;;;8.13;100.00;101107.77;2790748;83;21063;-92
2022/11/26 07:23:35;;;;;;;18.77;10.18;;;;;;;8.11;100.00;101108.79;2780531;84;21043;-91
2022/11/26 07:27:36;;;;;;;16.07;10.45;;;;;;;8.15;100.00;101114.28;2781797;85;21082;-91
2022/11/26 07:31:38;;;;;;;18.37;12.28;;;;;;;8.18;100.00;101122.54;2807336;84;21720;-91
2022/11/26 07:35:39;;;;;;;23.38;14.80;;;;;;;8.26;100.00;101121.64;2806593;84;21046;-91
2022/11/26 07:39:40;;;;;;;18.82;13.03;;;;;;;8.29;100.00;101132.05;2804732;84;21011;-92
2022/11/26 07:43:43;;;;;;;22.50;12.80;;;;;;;8.22;100.00;101130.23;2802954;83;21022;-91
2022/11/26 07:47:44;;;;;;;24.18;17.35;;;;;;;8.23;100.00;101139.02;2758268;85;21098;-91
2022/11/26 07:51:46;;;;;;;29.27;17.42;;;;;;;8.27;100.00;101147.20;2805987;84;20972;-90
2022/11/26 07:55:47;;;;;;;20.50;16.00;;;;;;;8.27;100.00;101152.50;2787412;84;21019;-91
2022/11/26 07:59:48;;;;;;;22.93;14.90;;;;;;;8.32;100.00;101150.88;2795274;84;21070;-94
2022/11/26 08:03:50;;;;;;;23.83;15.53;;;;;;;8.31;100.00;101153.16;2809164;83;21014;-93
2022/11/26 08:07:52;;;;;;;24.07;17.15;;;;;;;8.36;100.00;101156.41;2771383;85;21058;-89
2022/11/26 08:11:56;;;;;;;25.08;15.23;;;;;;;8.39;100.00;101158.87;2769885;84;21085;-92
2022/11/26 08:15:58;;;;;;;29.12;16.67;;;;;;;8.39;100.00;101161.04;2781097;85;24244;-91
2022/11/26 08:20:00;;;;;;;31.48;20.85;;;;;;;8.44;100.00;101170.89;2806845;84;21058;-91
2022/11/26 08:24:02;;;;;;;29.70;19.32;;;;;;;8.47;100.00;101178.31;2786088;85;21598;-95
2022/11/26 08:28:03;;;;;;;47.83;22.15;;;;;;;8.51;100.00;101184.68;2808755;84;21435;-92
2022/11/26 08:32:05;;;;;;;31.42;20.52;;;;;;;8.52;100.00;101180.25;2799755;84;21063;-91
2022/11/26 08:36:08;;;;;;;30.68;19.95;;;;;;;8.53;100.00;101181.95;2806218;84;21015;-95
2022/11/26 08:40:11;;;;;;;34.65;21.60;;;;;;;8.44;100.00;101187.29;2807965;84;21003;-95
2022/11/26 08:44:12;;;;;;;27.02;16.48;;;;;;;8.58;100.00;101193.14;2806712;84;21143;-96
2022/11/26 08:48:14;;;;;;;34.05;17.48;;;;;;;8.57;100.00;101202.04;2809702;84;21015;-94
2022/11/26 08:52:15;;;;;;;23.90;14.28;;;;;;;8.62;100.00;101202.61;2807085;84;21499;-94
2022/11/26 08:56:17;;;;;;;23.27;14.87;;;;;;;8.64;100.00;101208.67;2739542;84;21019;-90
2022/11/26 09:00:19;;;;;;;21.33;15.80;;;;;;;8.68;100.00;101211.55;2807472;84;21542;-93
2022/11/26 09:04:20;;;;;;;30.52;17.90;;;;;;;8.69;100.00;101217.23;2783366;84;21115;-91
2022/11/26 09:08:22;;;;;;;22.62;14.15;;;;;;;8.70;100.00;101220.27;2808101;84;21047;-91
2022/11/26 09:12:23;;;;;;;29.48;16.90;;;;;;;8.65;100.00;101225.00;2803367;84;21601;-91
2022/11/26 09:16:25;;;;;;;18.27;12.28;;;;;;;8.70;100.00;101228.23;2809904;84;20995;-93
2022/11/26 09:20:26;;;;;;;24.70;16.87;;;;;;;8.84;100.00;101230.52;2780338;84;21092;-92
2022/11/26 09:24:28;;;;;;;19.62;13.00;;;;;;;8.84;100.00;101227.86;2783414;85;21053;-95
2022/11/26 09:28:30;;;;;;;16.40;10.28;;;;;;;8.87;100.00;101239.65;2777071;85;21043;-94
2022/11/26 09:32:33;;;;;;;10.72;8.35;;;;;;;8.85;100.00;101238.40;2788996;85;21598;-91
2022/11/26 09:36:34;;;;;;;13.30;9.50;;;;;;;8.82;100.00;101241.23;2787835;85;20988;-91
2022/11/26 09:40:52;;;;;;;9.33;6.12;;;;;;;8.90;100.00;101248.75;2785458;84;21055;-89
2022/11/26 09:45:14;;;;;;;6.70;4.90;;;;;;;9.00;100.00;101251.70;2770195;84;21572;-90
2022/11/26 09:49:16;;;;;;;7.85;5.47;;;;;;;8.94;100.00;101260.01;2774380;85;21054;-91
2022/11/26 09:53:29;;;;;;;4.50;4.08;;;;;;;9.02;100.00;101256.91;2760422;84;21023;-92
2022/11/26 09:57:36;;;;;;;3.37;3.00;;;;;;;9.06;100.00;101271.72;2779865;84;21043;-91
2022/11/26 10:01:40;;;;;;;5.87;3.75;;;;;;;9.11;100.00;101263.84;2786677;85;20980;-92
2022/11/26 10:06:08;;;;;;;8.70;3.40;;;;;;;9.11;100.00;101272.29;2767557;85;21059;-93
2022/11/26 10:10:27;;;;;;;2.80;2.33;;;;;;;9.07;100.00;101267.63;2754971;86;21118;-89
2022/11/26 10:14:54;;;;;;;3.15;2.85;;;;;;;9.08;100.00;101276.46;2784231;85;21059;-93
2022/11/26 10:19:15;;;;;;;3.45;1.72;;;;;;;9.07;100.00;101278.73;2783957;84;21094;-89
2022/11/26 10:23:31;;;;;;;2.30;2.10;;;;;;;9.01;100.00;101283.93;2777003;83;21082;-89
2022/11/26 10:27:34;;;;;;;2.63;2.37;;;;;;;8.90;100.00;101281.05;2763397;85;21059;-90
2022/11/26 10:31:35;;;;;;;2.45;1.72;;;;;;;8.82;100.00;101278.84;2758995;84;21015;-89
2022/11/26 10:35:40;;;;;;;2.45;1.72;;;;;;;8.85;100.00;101283.98;2756778;86;21090;-91
2022/11/26 10:39:41;;;;;;;2.55;2.35;;;;;;;8.82;100.00;101282.81;2780077;83;21690;-90
2022/11/26 10:43:42;;;;;;;3.62;2.02;;;;;;;8.82;100.00;101285.47;2748143;85;21020;-89
2022/11/26 10:47:43;;;;;;;3.65;1.90;;;;;;;8.92;100.00;101289.31;2746770;85;21621;-91
2022/11/26 10:51:47;;;;;;;6.78;1.98;;;;;;;8.97;100.00;101292.53;2762406;85;21019;-88
2022/11/26 10:55:51;;;;;;;1.45;1.20;;;;;;;9.03;100.00;101290.45;2765356;85;21633;-90
2022/11/26 10:59:54;;;;;;;2.85;1.60;;;;;;;9.02;100.00;101298.91;2758675;85;20988;-90
2022/11/26 11:03:57;;;;;;;3.58;1.50;;;;;;;9.06;100.00;101304.90;2754289;85;21574;-91
2022/11/26 11:07:58;;;;;;;1.90;1.80;;;;;;;9.09;100.00;101304.71;2749280;83;21039;-89
2022/11/26 11:12:20;;;;;;;7.40;6.28;;;;;;;9.11;100.00;101304.14;2735777;86;21633;-90
2022/11/26 11:16:33;;;;;;;7.67;6.90;;;;;;;9.17;100.00;101308.23;2747466;85;21610;-90
2022/11/26 11:20:41;;;;;;;10.03;8.25;;;;;;;9.22;100.00;101306.99;2758780;85;21008;-89
2022/11/26 11:24:45;;;;;;;11.08;7.97;;;;;;;9.18;100.00;101317.42;2741969;85;21067;-88
2022/11/26 11:28:53;;;;;;;9.43;6.25;;;;;;;9.18;100.00;101316.09;2749066;85;21079;-90
2022/11/26 11:32:56;;;;;;;5.70;5.03;;;;;;;9.11;100.00;101324.05;2751574;86;21015;-90
2022/11/26 11:37:53;;;;;;;6.62;5.33;;;;;;;9.03;100.00;101336.90;2740226;86;21008;-89
2022/11/26 11:46:33;;;;;;;7.00;5.30;;;;;;;8.90;100.00;101333.66;2648882;86;21151;-89
2022/11/26 11:50:40;;;;;;;9.98;6.28;;;;;;;8.88;100.00;101332.89;2665927;87;21611;-89
2022/11/26 11:55:20;;;;;;;8.58;7.37;;;;;;;8.85;100.00;101341.87;2646336;88;21103;-89
2022/11/26 12:00:08;;;;;;;13.68;7.85;;;;;;;8.88;100.00;101337.33;2669343;88;21107;-90
2022/11/26 12:04:37;;;;;;;14.23;9.50;;;;;;;8.95;100.00;101343.52;2660539;87;21611;-90
2022/11/26 12:09:02;;;;;;;9.63;8.73;;;;;;;8.93;100.00;101345.41;2624105;88;21067;-89
2022/11/26 12:13:06;;;;;;;9.00;6.78;;;;;;;8.96;100.00;101348.38;2636198;89;21041;-89
2022/11/26 12:17:22;;;;;;;11.15;7.37;;;;;;;8.94;100.00;101348.45;2649504;88;21091;-90
2022/11/26 12:21:43;;;;;;;10.65;7.62;;;;;;;8.99;100.00;101345.05;2649885;88;21104;-89
2022/11/26 12:25:49;;;;;;;12.65;9.10;;;;;;;9.05;100.00;101345.17;2669994;88;21107;-89
2022/11/26 12:30:17;;;;;;;10.05;9.18;;;;;;;9.04;100.00;101354.08;2710692;86;21047;-90
2022/11/26 12:34:32;;;;;;;9.15;7.97;;;;;;;9.06;100.00;101355.33;2717326;86;21015;-90
2022/11/26 12:38:44;;;;;;;10.48;7.72;;;;;;;9.02;100.00;101357.75;2707005;85;21042;-90
2022/11/26 12:43:05;;;;;;;8.50;7.58;;;;;;;9.10;100.00;101363.00;2709571;85;21624;-90
2022/11/26 12:47:24;;;;;;;8.35;7.47;;;;;;;9.21;100.00;101361.03;2720708;87;21136;-90
2022/11/26 12:52:06;;;;;;;8.85;7.28;;;;;;;9.26;100.00;101361.64;2660772;87;21544;-90
2022/11/26 12:56:21;;;;;;;6.87;4.78;;;;;;;9.37;100.00;101353.49;2647352;87;21404;-90
2022/11/26 13:00:27;;;;;;;4.78;3.58;;;;;;;9.44;100.00;101361.50;2691755;86;21065;-90
2022/11/26 13:04:29;;;;;;;4.85;4.45;;;;;;;9.39;100.00;101359.56;2671271;86;21056;-89
2022/11/26 13:09:20;;;;;;;5.75;3.75;;;;;;;9.40;100.00;101363.92;2672244;87;21076;-90
2022/11/26 13:13:38;;;;;;;3.42;3.12;;;;;;;9.49;100.00;101362.06;2670920;87;21075;-89
2022/11/26 13:17:46;;;;;;;5.50;4.28;;;;;;;9.56;100.00;101371.85;2691671;86;21123;-90
2022/11/26 13:22:26;;;;;;;5.25;4.75;;;;;;;9.58;100.00;101370.80;2708265;87;21079;-89
2022/11/26 13:27:00;;;;;;;4.67;4.28;;;;;;;9.52;100.00;101371.17;2686887;86;21076;-90
2022/11/26 13:31:38;;;;;;;5.30;3.85;;;;;;;9.45;100.00;101383.58;2682750;87;21088;-89
2022/11/26 13:36:18;;;;;;;5.58;3.50;;;;;;;9.42;100.00;101384.61;2679379;86;21104;-89
2022/11/26 13:40:37;;;;;;;5.37;4.87;;;;;;;9.40;100.00;101386.50;2678703;86;21604;-87
2022/11/26 13:44:58;;;;;;;12.68;9.75;;;;;;;9.39;100.00;101380.81;2658780;87;21084;-88
2022/11/26 13:49:10;;;;;;;10.10;8.43;;;;;;;9.33;100.00;101387.82;2670219;87;21120;-88
2022/11/26 13:53:20;;;;;;;7.47;5.12;;;;;;;9.25;100.00;101388.27;2634657;87;21554;-89
2022/11/26 13:57:30;;;;;;;8.03;5.50;;;;;;;9.08;100.00;101391.92;2659915;87;21029;-89
2022/11/26 14:01:41;;;;;;;4.85;4.42;;;;;;;9.08;100.00;101403.87;2656757;88;21621;-89
2022/11/26 14:05:57;;;;;;;5.75;5.00;;;;;;;8.99;100.00;101406.09;2674131;88;21655;-89
2022/11/26 14:10:00;;;;;;;9.20;5.83;;;;;;;8.93;100.00;101408.23;2667905;88;21569;-88
2022/11/26 14:14:28;;;;;;;12.93;9.10;;;;;;;8.81;100.00;101413.31;2683963;86;21076;-89
2022/11/26 14:19:16;;;;;;;4.35;3.55;;;;;;;8.85;100.00;101415.33;2658996;86;21572;-90
2022/11/26 14:23:46;;;;;;;8.33;6.37;;;;;;;8.70;100.00;101415.70;2678494;87;21077;-89
2022/11/26 14:27:52;;;;;;;9.40;7.40;;;;;;;8.63;100.00;101424.95;2601407;90;21119;-90
2022/11/26 14:31:54;;;;;;;;;;;;;;;8.52;100.00;101425.05;2596076;91;21688;-88
2022/11/26 14:35:56;;;;;;;9.05;5.62;;;;;;;8.44;100.00;101427.25;2607341;89;20129;-89
2022/11/26 14:40:08;;;;;;;12.53;10.13;;;;;;;8.43;100.00;101436.16;2606276;90;21072;-89
2022/11/26 14:44:14;;;;;;;8.25;7.45;;;;;;;8.43;100.00;101440.13;2611873;89;21101;-90
2022/11/26 14:48:23;;;;;;;10.40;7.58;;;;;;;8.49;100.00;101446.90;2644302;89;21097;-89
2022/11/26 14:52:32;;;;;;;8.20;6.67;;;;;;;8.50;100.00;101446.83;2624265;89;21878;-88
2022/11/26 14:56:38;;;;;;;7.15;5.85;;;;;;;8.46;100.00;101453.22;2620056;89;21118;-87
2022/11/26 15:00:39;;;;;;;12.17;7.33;;;;;;;8.42;100.00;101451.67;2646017;86;21114;-89
2022/11/26 15:04:41;;;;;;;10.53;8.80;;;;;;;8.42;100.00;101449.86;2689776;86;21637;-88
2022/11/26 15:08:42;;;;;;;12.13;8.53;;;;;;;8.38;100.00;101455.44;2776174;84;21061;-87
2022/11/26 15:12:47;;;;;;;11.78;9.98;;;;;;;8.32;100.00;101457.08;2712409;86;21120;-88
2022/11/26 15:17:01;;;;;;;11.53;10.05;;;;;;;8.28;100.00;101459.05;2714891;86;21217;-90
2022/11/26 15:21:05;;;;;;;12.05;9.95;;;;;;;8.23;100.00;101457.09;2695803;86;21119;-89
2022/11/26 15:25:18;;;;;;;11.55;10.10;;;;;;;8.22;100.00;101458.91;2729718;86;21082;-89
2022/11/26 15:29:39;;;;;;;17.35;13.13;;;;;;;8.30;100.00;101466.45;2693921;86;21091;-89
2022/11/26 15:33:41;;;;;;;19.85;15.40;;;;;;;8.35;100.00;101471.03;2679256;85;21142;-89
2022/11/26 15:37:43;;;;;;;16.80;12.78;;;;;;;8.35;100.00;101468.84;2720102;86;21078;-89
2022/11/26 15:41:44;;;;;;;11.95;9.73;;;;;;;8.36;100.00;101470.58;2689616;85;21607;-90
2022/11/26 15:45:45;;;;;;;11.65;9.05;;;;;;;8.38;100.00;101474.84;2694602;86;21057;-89
2022/11/26 15:49:53;;;;;;;13.03;9.40;;;;;;;8.32;100.00;101478.28;2644565;88;21041;-89
2022/11/26 15:53:54;;;;;;;12.50;9.13;;;;;;;8.25;100.00;101471.13;2686427;86;21092;-89
2022/11/26 15:57:57;;;;;;;17.98;11.75;;;;;;;8.21;100.00;101473.10;2636999;86;21584;-89
2022/11/26 16:02:10;;;;;;;15.05;9.70;;;;;;;8.27;100.00;101471.92;2691646;85;21640;-88
2022/11/26 16:06:39;;;;;;;12.05;9.05;;;;;;;8.28;100.00;101478.94;2636314;89;21667;-88
2022/11/26 16:10:40;;;;;;;20.68;12.15;;;;;;;8.22;100.00;101480.56;2656818;86;21107;-87
2022/11/26 16:14:42;;;;;;;19.50;13.40;;;;;;;8.21;100.00;101485.48;2679167;87;21030;-88
2022/11/26 16:18:57;;;;;;;19.92;13.78;;;;;;;8.13;100.00;101482.78;2643204;88;21100;-87
2022/11/26 16:23:00;;;;;;;16.70;11.73;;;;;;;8.13;100.00;101481.91;2660176;88;21691;-88
2022/11/26 16:27:06;;;;;;;24.43;14.75;;;;;;;8.19;100.00;101476.76;2686371;86;21125;-89
2022/11/26 16:31:08;;;;;;;17.42;13.90;;;;;;;8.20;100.00;101485.09;2644752;86;21768;-89
2022/11/26 16:35:09;;;;;;;24.57;14.23;;;;;;;8.19;100.00;101483.38;2658473;87;21113;-88
2022/11/26 16:39:15;;;;;;;20.27;14.85;;;;;;;8.10;100.00;101481.62;2690765;86;21653;-89
2022/11/26 16:43:17;;;;;;;26.97;15.32;;;;;;;8.05;100.00;101488.09;2660455;87;21096;-89
2022/11/26 16:47:27;;;;;;;29.55;13.38;;;;;;;8.07;100.00;101487.08;2685995;88;21060;-89
2022/11/26 16:51:28;;;;;;;19.92;12.88;;;;;;;8.01;100.00;101491.36;2692841;88;21095;-87
2022/11/26 16:55:30;;;;;;;21.95;13.10;;;;;;;8.05;100.00;101487.60;2692185;88;21100;-89
2022/11/26 16:59:31;;;;;;;17.07;10.82;;;;;;;8.06;100.00;101490.67;2672119;88;21103;-89
2022/11/26 17:03:32;;;;;;;15.65;12.53;;;;;;;8.01;100.00;101492.68;2656330;88;21051;-89
2022/11/26 17:07:41;;;;;;;18.12;11.18;;;;;;;8.03;100.00;101501.41;2670367;88;21099;-88
2022/11/26 17:11:43;;;;;;;20.48;11.97;;;;;;;7.99;100.00;101499.41;2668297;88;21060;-89
2022/11/26 17:15:44;;;;;;;19.12;12.95;;;;;;;8.00;100.00;101502.89;2644001;88;21063;-89
2022/11/26 17:19:46;;;;;;;24.02;15.23;;;;;;;7.99;100.00;101498.53;2657485;88;21060;-89
2022/11/26 17:23:47;;;;;;;17.42;11.78;;;;;;;8.05;100.00;101504.83;2675052;88;22275;-88
2022/11/26 17:27:48;;;;;;;14.13;11.33;;;;;;;8.06;100.00;101509.67;2693146;88;21052;-87
2022/11/26 17:31:49;;;;;;;21.20;13.18;;;;;;;8.02;100.00;101508.13;2667906;87;21206;-89
2022/11/26 17:35:51;;;;;;;14.03;9.83;;;;;;;8.08;100.00;101511.77;2671739;88;21084;-89
2022/11/26 17:39:53;;;;;;;20.68;10.40;;;;;;;8.04;100.00;101508.41;2680610;88;21012;-89
2022/11/26 17:43:54;;;;;;;18.57;10.38;;;;;;;8.03;100.00;101508.03;2666890;88;21056;-88
2022/11/26 17:47:55;;;;;;;17.60;10.00;;;;;;;8.00;100.00;101514.81;2643101;86;21107;-89
2022/11/26 17:51:56;;;;;;;12.47;7.37;;;;;;;8.03;100.00;101523.93;2663337;88;21053;-89
2022/11/26 17:55:57;;;;;;;8.40;7.05;;;;;;;8.18;100.00;101523.62;2667403;87;21086;-89
2022/11/26 17:59:58;;;;;;;8.50;5.55;;;;;;;8.31;100.00;101526.94;2658239;88;21069;-89
2022/11/26 18:04:00;;;;;;;16.37;6.67;;;;;;;8.38;100.00;101529.20;2692037;86;21541;-89
2022/11/26 18:08:01;;;;;;;17.20;8.20;;;;;;;8.49;100.00;101534.41;2659094;86;21057;-89
2022/11/26 18:12:06;;;;;;;12.65;10.45;;;;;;;8.63;100.00;101532.37;2674145;86;21048;-89
2022/11/26 18:16:08;;;;;;;11.00;7.85;;;;;;;8.77;100.00;101536.47;2670780;86;21045;-89
2022/11/26 18:20:09;;;;;;;11.03;6.37;;;;;;;8.90;100.00;101537.11;2665183;86;21620;-89
2022/11/26 18:24:11;;;;;;;10.80;7.53;;;;;;;8.97;100.00;101538.02;2669052;86;21118;-89
2022/11/26 18:28:17;;;;;;;8.10;7.20;;;;;;;9.02;100.00;101536.90;2697542;86;21119;-89
2022/11/26 18:32:19;;;;;;;7.47;6.13;;;;;;;9.10;100.00;101546.16;2660011;88;21037;-87
2022/11/26 18:36:20;;;;;;;11.18;6.87;;;;;;;9.19;100.00;101546.11;2688321;86;21683;-89
2022/11/26 18:40:21;;;;;;;25.02;14.58;;;;;;;9.15;100.00;101548.56;2615957;88;21080;-89
2022/11/26 18:44:22;;;;;;;11.38;7.67;;;;;;;8.99;100.00;101549.40;2659987;87;21145;-87
2022/11/26 18:48:23;;;;;;;24.80;13.28;;;;;;;8.85;100.00;101554.14;2647133;88;21587;-88
2022/11/26 18:52:25;;;;;;;15.60;8.73;;;;;;;8.72;100.00;101561.05;2668096;86;21562;-88
2022/11/26 18:56:26;;;;;;;27.65;15.43;;;;;;;8.56;100.00;101561.02;2690253;86;21067;-87
2022/11/26 19:00:28;;;;;;;50.43;29.65;;;;;;;8.37;100.00;101564.59;2667666;88;21546;-89